Santa, Idaho
Current Conditions -  °F | °C
As of 12:53 AM on Friday 31 Oct 2014 (Local Time) from KPUW Reporting Station
Clear Clear  
Wind Chill: 54°   Ceiling: Unl
Heat Index: 54°   Visibility: 10mi
Dew Point: 43°   Wind: 14mph
Humidity: 66%   Direction: 100°E
Pressure: 29.78"   Gusts: NA
Location:  47.15°N, 116.45°W
Report Text: KPUW 310753Z AUTO 10012KT 10SM CLR 12/06 A2978 RMK AO2 SLP081 T01220061 401560094
Loading
Personal Weather Stations






























Interactive Weather Map
Tropical Storm Tracking
New forecast layout! Learn more

10-Day Weather Forecast

Advertisements
Track Severe Weather on mobile